createdAt,value
2018-03-22T00:00:14.356Z,27.45
2018-03-22T00:02:41.330Z,27.62
2018-03-22T00:05:10.261Z,29.00
2018-03-22T00:07:37.205Z,29.05
2018-03-22T00:10:03.442Z,29.05
2018-03-22T00:12:29.762Z,24.80
2018-03-22T00:14:57.141Z,27.13
2018-03-22T00:17:23.552Z,26.80
2018-03-22T00:19:49.802Z,32.20
2018-03-22T00:22:23.975Z,27.75
2018-03-22T00:24:50.230Z,31.15
2018-03-22T00:27:16.476Z,31.00
2018-03-22T00:29:42.699Z,36.78
2018-03-22T00:32:09.522Z,37.15
2018-03-22T00:34:35.954Z,30.73
2018-03-22T00:37:03.018Z,30.77
2018-03-22T00:39:30.309Z,31.27
2018-03-22T00:41:56.539Z,30.77
2018-03-22T00:44:22.761Z,39.55
2018-03-22T00:46:49.762Z,24.70
2018-03-22T00:49:15.983Z,28.10
2018-03-22T00:51:42.214Z,28.02
2018-03-22T00:54:09.198Z,36.05
2018-03-22T00:56:35.509Z,33.08
2018-03-22T00:59:02.729Z,28.62
2018-03-22T01:01:28.953Z,27.60
2018-03-22T01:06:37.789Z,32.20
2018-03-22T01:09:04.809Z,29.75
2018-03-22T01:16:36.212Z,33.25
2018-03-22T01:19:02.888Z,33.05
2018-03-22T01:21:29.772Z,35.00
2018-03-22T01:23:58.322Z,32.22
2018-03-22T01:26:25.567Z,34.70
2018-03-22T01:28:52.007Z,33.53
2018-03-22T01:31:18.540Z,34.42
2018-03-22T01:33:45.019Z,33.75
2018-03-22T01:36:12.277Z,31.42
2018-03-22T01:38:38.703Z,36.95
2018-03-22T01:41:05.796Z,34.22
2018-03-22T01:43:32.285Z,34.17
2018-03-22T01:46:00.422Z,33.35
2018-03-22T01:48:26.892Z,41.78
2018-03-22T01:50:53.391Z,30.92
2018-03-22T01:53:20.511Z,28.62
2018-03-22T01:55:47.061Z,29.63
2018-03-22T01:58:14.262Z,32.17
2018-03-22T02:03:16.037Z,30.33
2018-03-22T02:05:42.533Z,30.60
2018-03-22T02:08:09.018Z,26.83
2018-03-22T02:10:35.562Z,34.83
2018-03-22T02:13:02.013Z,28.45
2018-03-22T02:15:29.361Z,34.58
2018-03-22T02:17:56.524Z,24.58
2018-03-22T02:20:23.001Z,28.55
2018-03-22T02:22:49.411Z,28.20
2018-03-22T02:25:15.857Z,31.50
2018-03-22T02:27:42.227Z,31.40
2018-03-22T02:30:08.641Z,31.70
2018-03-22T02:32:35.023Z,27.95
2018-03-22T02:35:01.535Z,29.52
2018-03-22T02:37:29.466Z,26.62
2018-03-22T02:39:55.908Z,25.58
2018-03-22T02:42:23.763Z,35.63
2018-03-22T02:44:51.853Z,32.53
2018-03-22T02:47:18.314Z,33.78
2018-03-22T02:49:45.427Z,28.67
2018-03-22T02:52:11.866Z,29.27
2018-03-22T02:54:38.391Z,29.90
2018-03-22T02:57:04.843Z,29.48
2018-03-22T02:59:31.983Z,30.12
2018-03-22T03:01:58.337Z,36.85
2018-03-22T03:04:25.607Z,32.80
2018-03-22T03:06:52.820Z,36.58
2018-03-22T03:09:19.144Z,33.75
2018-03-22T03:11:45.583Z,34.95
2018-03-22T03:14:11.995Z,32.97
2018-03-22T03:16:38.426Z,37.67
2018-03-22T03:19:20.363Z,34.20
2018-03-22T03:21:46.782Z,33.55
2018-03-22T03:24:13.145Z,30.10
2018-03-22T03:26:39.563Z,33.28
2018-03-22T03:29:05.940Z,34.47
2018-03-22T03:31:32.424Z,32.35
2018-03-22T03:33:59.448Z,29.08
2018-03-22T03:36:28.655Z,31.83
2018-03-22T03:38:56.031Z,34.13
2018-03-22T03:41:22.498Z,37.03
2018-03-22T03:43:50.373Z,34.17
2018-03-22T03:46:16.734Z,34.55
2018-03-22T03:48:43.238Z,29.37
2018-03-22T03:51:09.730Z,32.92
2018-03-22T03:53:36.203Z,30.92
2018-03-22T03:56:03.560Z,34.58
2018-03-22T03:58:30.045Z,35.17
2018-03-22T04:00:56.469Z,38.38
2018-03-22T04:03:22.845Z,33.13
2018-03-22T04:05:49.336Z,43.03
2018-03-22T04:08:19.211Z,31.33
2018-03-22T04:10:45.661Z,28.38
2018-03-22T04:13:12.031Z,32.17
2018-03-22T04:15:38.394Z,35.88
2018-03-22T04:18:04.809Z,38.65
2018-03-22T04:20:31.206Z,33.70
2018-03-22T04:22:57.557Z,34.40
2018-03-22T04:25:24.679Z,29.95
2018-03-22T04:27:51.218Z,38.28
2018-03-22T04:30:17.690Z,31.08
2018-03-22T04:32:44.202Z,31.35
2018-03-22T04:35:13.717Z,40.72
2018-03-22T04:37:40.232Z,32.15
2018-03-22T04:40:06.671Z,30.67
2018-03-22T04:42:33.162Z,36.50
2018-03-22T04:44:59.786Z,35.00
2018-03-22T04:47:26.268Z,36.15
2018-03-22T04:49:52.816Z,31.92
2018-03-22T04:52:19.223Z,35.75
2018-03-22T04:54:45.701Z,34.15
2018-03-22T04:57:12.462Z,32.92
2018-03-22T04:59:38.847Z,37.08
2018-03-22T05:02:05.343Z,37.65
2018-03-22T05:04:31.882Z,31.85
2018-03-22T05:06:58.850Z,39.97
2018-03-22T05:09:28.429Z,34.80
2018-03-22T05:19:14.345Z,38.65
2018-03-22T05:21:40.824Z,41.20
2018-03-22T05:24:07.398Z,40.92
2018-03-22T05:26:34.645Z,37.88
2018-03-22T05:29:01.313Z,37.53
2018-03-22T05:31:27.817Z,43.10
2018-03-22T05:33:54.293Z,36.65
2018-03-22T05:36:21.595Z,38.13
2018-03-22T05:38:48.080Z,39.25
2018-03-22T05:41:15.390Z,43.28
2018-03-22T05:43:41.885Z,37.25
2018-03-22T05:46:08.510Z,46.63
2018-03-22T05:48:36.598Z,48.53
2018-03-22T05:51:05.403Z,45.97
2018-03-22T05:53:34.373Z,42.03
2018-03-22T05:56:01.326Z,49.20
2018-03-22T05:58:28.491Z,59.80
2018-03-22T06:00:55.007Z,48.15
2018-03-22T06:03:21.541Z,49.38
2018-03-22T06:05:47.963Z,47.55
2018-03-22T06:08:18.857Z,54.13
2018-03-22T06:10:45.179Z,54.35
2018-03-22T06:13:11.506Z,53.05
2018-03-22T06:15:37.780Z,52.70
2018-03-22T06:18:04.742Z,53.70
2018-03-22T06:20:32.149Z,55.33
2018-03-22T06:22:59.301Z,52.22
2018-03-22T06:25:25.543Z,66.90
2018-03-22T06:27:52.602Z,57.92
2018-03-22T06:30:19.002Z,54.75
2018-03-22T06:32:45.318Z,63.95
2018-03-22T06:35:11.563Z,59.75
2018-03-22T06:37:37.934Z,49.85
2018-03-22T06:40:06.011Z,54.60
2018-03-22T06:42:32.965Z,61.28
2018-03-22T06:45:00.706Z,69.47
2018-03-22T06:47:26.940Z,61.67
2018-03-22T06:49:53.199Z,68.30
2018-03-22T06:52:19.646Z,55.85
2018-03-22T06:54:46.590Z,69.72
2018-03-22T06:57:12.867Z,65.75
2018-03-22T06:59:39.086Z,64.30
2018-03-22T07:02:06.662Z,72.87
2018-03-22T07:04:33.658Z,79.85
2018-03-22T07:07:00.695Z,68.07
2018-03-22T07:09:26.899Z,67.85
2018-03-22T07:11:54.140Z,63.03
2018-03-22T07:14:20.334Z,55.47
2018-03-22T07:16:47.258Z,61.60
2018-03-22T07:19:13.417Z,68.82
2018-03-22T07:21:40.419Z,65.05
2018-03-22T07:24:06.689Z,68.05
2018-03-22T07:26:32.942Z,63.00
2018-03-22T07:28:59.180Z,59.33
2018-03-22T07:31:25.484Z,53.15
2018-03-22T07:33:52.427Z,56.10
2018-03-22T07:36:18.677Z,64.12
2018-03-22T07:38:44.831Z,51.22
2018-03-22T07:41:11.135Z,55.20
2018-03-22T07:43:41.547Z,45.70
2018-03-22T07:46:09.843Z,50.67
2018-03-22T07:48:37.118Z,53.40
2018-03-22T07:51:03.669Z,56.78
2018-03-22T07:53:30.855Z,51.40
2018-03-22T07:55:57.230Z,57.42
2018-03-22T07:58:24.365Z,55.38
2018-03-22T08:00:52.020Z,61.92
2018-03-22T08:03:18.399Z,52.38
2018-03-22T08:05:44.714Z,55.05
2018-03-22T08:08:14.884Z,63.80
2018-03-22T08:10:41.131Z,58.53
2018-03-22T08:13:07.451Z,55.72
2018-03-22T08:15:34.639Z,51.80
2018-03-22T08:18:02.094Z,48.55
2018-03-22T08:20:28.282Z,47.08
2018-03-22T08:22:54.490Z,58.55
2018-03-22T08:25:20.772Z,52.45
2018-03-22T08:27:46.997Z,53.47
2018-03-22T08:30:13.231Z,53.55
2018-03-22T08:32:39.589Z,56.63
2018-03-22T08:35:06.063Z,57.53
2018-03-22T08:37:32.479Z,51.55
2018-03-22T08:39:59.695Z,54.10
2018-03-22T08:42:25.978Z,47.40
2018-03-22T08:44:52.277Z,53.35
2018-03-22T08:47:19.358Z,54.47
2018-03-22T08:49:45.592Z,56.10
2018-03-22T08:52:13.450Z,52.38
2018-03-22T08:54:39.711Z,49.53
2018-03-22T08:57:06.052Z,43.67
2018-03-22T08:59:32.285Z,45.35
2018-03-22T09:02:02.373Z,49.42
2018-03-22T09:04:29.345Z,45.55
2018-03-22T09:06:55.772Z,48.45
2018-03-22T09:09:22.474Z,43.17
2018-03-22T09:11:48.657Z,46.03
2018-03-22T09:14:15.462Z,48.72
2018-03-22T09:16:42.560Z,45.47
2018-03-22T09:19:08.886Z,56.88
2018-03-22T09:21:35.091Z,44.53
2018-03-22T09:24:02.324Z,43.53
2018-03-22T09:26:28.677Z,50.08
2018-03-22T09:28:57.834Z,51.53
2018-03-22T09:31:24.096Z,50.10
2018-03-22T09:33:50.372Z,49.75
2018-03-22T09:36:16.737Z,51.67
2018-03-22T09:38:42.998Z,43.87
2018-03-22T09:41:09.433Z,48.95
2018-03-22T09:43:36.476Z,55.95
2018-03-22T09:48:38.571Z,59.75
2018-03-22T09:51:04.915Z,50.40
2018-03-22T09:53:31.969Z,55.85
2018-03-22T09:55:58.234Z,54.70
2018-03-22T09:58:25.285Z,53.72
2018-03-22T10:00:51.878Z,47.55
2018-03-22T10:03:21.467Z,55.53
2018-03-22T10:05:47.803Z,52.15
2018-03-22T10:08:14.188Z,47.70
2018-03-22T10:10:40.502Z,49.92
2018-03-22T10:13:06.970Z,48.25
2018-03-22T10:15:34.324Z,50.28
2018-03-22T10:18:00.713Z,43.85
2018-03-22T10:20:27.001Z,48.60
2018-03-22T10:22:53.257Z,45.47
2018-03-22T10:25:19.547Z,44.13
2018-03-22T10:27:45.706Z,41.50
2018-03-22T10:30:11.930Z,39.67
2018-03-22T10:32:38.137Z,42.85
2018-03-22T10:35:04.359Z,41.17
2018-03-22T10:37:30.682Z,47.78
2018-03-22T10:39:56.927Z,43.17
2018-03-22T10:42:23.361Z,46.28
2018-03-22T10:44:51.335Z,50.25
2018-03-22T10:47:17.546Z,48.58
2018-03-22T10:49:43.925Z,52.28
2018-03-22T10:52:10.854Z,56.95
2018-03-22T10:54:37.064Z,56.80
2018-03-22T10:57:03.497Z,65.40
2018-03-22T10:59:29.842Z,55.58
2018-03-22T11:02:00.035Z,52.70
2018-03-22T11:04:27.211Z,53.78
2018-03-22T11:06:53.621Z,49.15
2018-03-22T11:09:20.644Z,61.60
2018-03-22T11:11:46.870Z,61.10
2018-03-22T11:14:13.083Z,56.97
2018-03-22T11:16:40.178Z,63.20
2018-03-22T11:19:06.521Z,54.42
2018-03-22T11:21:32.863Z,66.22
2018-03-22T11:24:04.282Z,65.30
2018-03-22T11:26:30.573Z,67.35
2018-03-22T11:28:56.851Z,69.20
2018-03-22T11:31:23.094Z,66.85
2018-03-22T11:33:49.390Z,72.57
2018-03-22T11:36:15.788Z,69.05
2018-03-22T11:38:42.172Z,74.00
2018-03-22T11:41:08.410Z,80.07
2018-03-22T11:43:37.819Z,76.32
2018-03-22T11:46:04.108Z,69.60
2018-03-22T11:48:30.396Z,63.53
2018-03-22T11:50:56.690Z,78.32
2018-03-22T11:53:22.932Z,79.72
2018-03-22T11:55:49.255Z,73.30
2018-03-22T11:58:15.594Z,79.87
2018-03-22T12:00:48.651Z,74.37
2018-03-22T12:03:15.056Z,82.18
2018-03-22T12:05:41.529Z,86.30
2018-03-22T12:08:07.875Z,92.15
2018-03-22T12:10:34.144Z,82.95
2018-03-22T12:13:00.459Z,73.12
2018-03-22T12:15:34.213Z,101.75
2018-03-22T12:18:00.579Z,82.30
2018-03-22T12:20:26.878Z,93.28
2018-03-22T12:22:53.115Z,97.12
2018-03-22T12:25:19.415Z,96.30
2018-03-22T12:27:45.682Z,97.53
2018-03-22T12:30:12.055Z,106.35
2018-03-22T12:32:43.556Z,96.55
2018-03-22T12:35:10.879Z,93.60
2018-03-22T12:37:37.137Z,106.47
2018-03-22T12:40:03.538Z,123.55
2018-03-22T12:42:30.007Z,101.12
2018-03-22T12:44:56.324Z,122.40
2018-03-22T12:47:22.760Z,116.62
2018-03-22T12:49:49.077Z,126.28
2018-03-22T12:52:19.214Z,126.53
2018-03-22T12:54:46.466Z,98.12
2018-03-22T12:57:12.915Z,129.15
2018-03-22T12:59:39.406Z,137.32
2018-03-22T13:02:06.295Z,142.20
2018-03-22T13:04:32.601Z,132.95
2018-03-22T13:06:58.844Z,142.45
2018-03-22T13:09:30.208Z,143.65
2018-03-22T13:11:56.524Z,139.45
2018-03-22T13:14:22.814Z,123.65
2018-03-22T13:16:49.248Z,131.90
2018-03-22T13:19:15.600Z,138.48
2018-03-22T13:21:42.697Z,141.68
2018-03-22T13:24:09.109Z,126.40
2018-03-22T13:26:39.225Z,129.60
2018-03-22T13:29:05.609Z,126.25
2018-03-22T13:31:32.051Z,129.57
2018-03-22T13:33:58.310Z,136.80
2018-03-22T13:36:25.297Z,148.43
2018-03-22T13:38:51.629Z,148.85
2018-03-22T13:41:17.934Z,129.60
2018-03-22T13:43:44.403Z,147.10
2018-03-22T13:46:15.636Z,183.80
2018-03-22T13:48:42.022Z,118.95
2018-03-22T13:51:08.378Z,133.27
2018-03-22T13:53:34.729Z,142.95
2018-03-22T13:56:01.112Z,142.00
2018-03-22T13:58:27.383Z,126.25
2018-03-22T14:00:54.405Z,163.85
2018-03-22T14:03:22.432Z,134.30
2018-03-22T14:05:48.850Z,136.80
2018-03-22T14:08:16.092Z,143.23
2018-03-22T14:10:42.410Z,147.68
2018-03-22T14:13:08.690Z,156.27
2018-03-22T14:15:34.940Z,160.30
2018-03-22T14:18:01.937Z,124.47
2018-03-22T14:20:36.057Z,132.45
2018-03-22T14:23:02.350Z,120.18
2018-03-22T14:25:28.641Z,124.45
2018-03-22T14:27:54.938Z,139.32
2018-03-22T14:30:21.237Z,142.30
2018-03-22T14:32:48.231Z,110.03
2018-03-22T14:35:20.862Z,122.30
2018-03-22T14:37:47.290Z,135.57
2018-03-22T14:40:14.346Z,117.43
2018-03-22T14:42:40.609Z,137.65
2018-03-22T14:45:06.892Z,115.93
2018-03-22T14:47:33.052Z,100.07
2018-03-22T14:49:59.313Z,112.93
2018-03-22T14:52:25.774Z,92.15
2018-03-22T14:54:52.103Z,107.20
2018-03-22T14:57:19.433Z,110.15
2018-03-22T14:59:46.450Z,103.47
2018-03-22T15:02:12.833Z,105.87
2018-03-22T15:04:39.138Z,108.47
2018-03-22T15:07:05.381Z,92.78
2018-03-22T15:09:31.625Z,100.57
2018-03-22T15:11:57.958Z,85.45
2018-03-22T15:14:24.259Z,81.12
2018-03-22T15:16:50.519Z,72.80
2018-03-22T15:19:16.803Z,103.07
2018-03-22T15:21:43.318Z,112.78
2018-03-22T15:24:09.623Z,95.07
2018-03-22T15:26:36.750Z,109.30
2018-03-22T15:29:02.956Z,90.78
2018-03-22T15:31:29.226Z,87.15
2018-03-22T15:33:55.450Z,112.35
2018-03-22T15:36:21.802Z,93.20
2018-03-22T15:38:48.114Z,109.47
2018-03-22T15:41:14.489Z,107.15
2018-03-22T15:43:40.775Z,117.22
2018-03-22T15:46:06.983Z,109.37
2018-03-22T15:48:33.251Z,107.55
2018-03-22T15:50:59.529Z,112.53
2018-03-22T15:53:25.840Z,115.93
2018-03-22T15:55:54.324Z,124.50
2018-03-22T15:58:20.503Z,120.82
2018-03-22T16:03:35.708Z,134.02
2018-03-22T16:06:04.666Z,118.30
2018-03-22T16:08:30.968Z,143.52
2018-03-22T16:10:58.445Z,155.57
2018-03-22T16:13:24.854Z,140.82
2018-03-22T16:15:51.591Z,183.48
2018-03-22T16:18:19.601Z,128.82
2018-03-22T16:20:46.093Z,133.00
2018-03-22T16:23:14.313Z,159.80
2018-03-22T16:25:40.784Z,118.75
2018-03-22T16:28:07.423Z,110.70
2018-03-22T16:30:34.050Z,134.55
2018-03-22T16:33:00.677Z,136.88
2018-03-22T16:35:27.125Z,96.65
2018-03-22T16:37:53.655Z,76.28
2018-03-22T16:40:20.096Z,71.43
2018-03-22T16:42:46.852Z,56.92
2018-03-22T16:45:13.262Z,82.07
2018-03-22T16:47:39.740Z,57.05
2018-03-22T16:50:06.197Z,77.70
2018-03-22T16:52:32.701Z,73.05
2018-03-22T16:55:00.584Z,56.00
2018-03-22T16:57:26.974Z,51.28
2018-03-22T16:59:53.417Z,49.38
2018-03-22T17:02:19.788Z,51.17
2018-03-22T17:04:46.065Z,51.63
2018-03-22T17:07:12.950Z,53.47
2018-03-22T17:09:39.275Z,56.97
2018-03-22T17:12:05.630Z,38.65
2018-03-22T17:14:32.121Z,54.15
2018-03-22T17:16:58.532Z,53.15
2018-03-22T17:19:24.929Z,49.00
2018-03-22T17:21:51.222Z,49.95
2018-03-22T17:24:17.683Z,51.85
2018-03-22T17:26:43.930Z,46.22
2018-03-22T17:29:10.228Z,59.70
2018-03-22T17:31:36.502Z,53.85
2018-03-22T17:34:03.981Z,62.28
2018-03-22T17:36:30.302Z,69.15
2018-03-22T17:38:56.651Z,61.80
2018-03-22T17:43:58.676Z,68.62
2018-03-22T17:46:25.018Z,58.47
2018-03-22T17:48:54.534Z,65.87
2018-03-22T17:51:22.096Z,63.78
2018-03-22T17:53:48.772Z,72.25
2018-03-22T17:56:15.216Z,57.30
2018-03-22T17:58:42.213Z,58.58
2018-03-22T18:01:08.642Z,63.85
2018-03-22T18:03:35.952Z,49.55
2018-03-22T18:06:02.412Z,61.47
2018-03-22T18:08:28.762Z,63.15
2018-03-22T18:10:55.136Z,57.83
2018-03-22T18:13:22.145Z,83.10
2018-03-22T18:15:48.550Z,72.10
2018-03-22T18:18:14.781Z,79.00
2018-03-22T18:20:41.030Z,108.37
2018-03-22T18:23:07.300Z,102.32
2018-03-22T18:25:33.608Z,113.07
2018-03-22T18:28:00.001Z,98.07
2018-03-22T18:30:26.349Z,112.30
2018-03-22T18:32:55.299Z,111.95
2018-03-22T18:35:22.513Z,116.72
2018-03-22T18:37:48.815Z,125.15
2018-03-22T18:40:15.362Z,112.80
2018-03-22T18:42:41.685Z,122.82
2018-03-22T18:45:08.037Z,108.90
2018-03-22T18:47:34.570Z,82.70
2018-03-22T18:50:00.999Z,92.68
2018-03-22T18:52:27.282Z,75.85
2018-03-22T18:55:00.284Z,79.72
2018-03-22T18:57:26.634Z,68.18
2018-03-22T18:59:53.806Z,74.50
2018-03-22T19:02:20.981Z,73.15
2018-03-22T19:04:47.289Z,77.62
2018-03-22T19:07:17.590Z,65.87
2018-03-22T19:09:44.187Z,86.63
2018-03-22T19:12:10.768Z,46.05
2018-03-22T19:14:37.990Z,45.80
2018-03-22T19:17:04.534Z,51.67
2018-03-22T19:19:31.384Z,61.40
2018-03-22T19:21:57.942Z,67.78
2018-03-22T19:24:25.449Z,46.92
2018-03-22T19:26:53.153Z,48.35
2018-03-22T19:29:19.928Z,58.65
2018-03-22T19:31:46.495Z,45.78
2018-03-22T19:34:13.871Z,54.92
2018-03-22T19:36:41.263Z,52.05
2018-03-22T19:39:07.875Z,57.38
2018-03-22T19:41:36.534Z,50.53
2018-03-22T19:44:03.146Z,45.75
2018-03-22T19:46:29.634Z,80.00
2018-03-22T19:48:56.166Z,61.65
2018-03-22T19:51:22.825Z,76.70
2018-03-22T19:53:49.443Z,86.82
2018-03-22T19:56:15.975Z,84.07
2018-03-22T19:58:43.534Z,80.40
2018-03-22T20:01:10.072Z,64.78
2018-03-22T20:03:36.649Z,92.53
2018-03-22T20:06:03.156Z,101.20
2018-03-22T20:08:29.725Z,119.78
2018-03-22T20:10:56.314Z,132.07
2018-03-22T20:13:23.016Z,151.32
2018-03-22T20:15:49.715Z,179.48
2018-03-22T20:18:16.302Z,154.20
2018-03-22T20:20:42.902Z,155.27
2018-03-22T20:23:09.524Z,156.87
2018-03-22T20:25:35.955Z,189.95
2018-03-22T20:28:03.656Z,171.43
2018-03-22T20:30:30.236Z,185.57
2018-03-22T20:32:56.752Z,279.13
2018-03-22T20:35:23.281Z,156.30
2018-03-22T20:37:49.955Z,205.68
2018-03-22T20:40:16.619Z,183.85
2018-03-22T20:42:43.145Z,184.43
2018-03-22T20:45:09.822Z,262.85
2018-03-22T20:47:36.337Z,220.43
2018-03-22T20:50:02.933Z,211.68
2018-03-22T20:52:31.264Z,204.48
2018-03-22T20:55:03.628Z,198.23
2018-03-22T20:57:30.272Z,198.30
2018-03-22T20:59:56.936Z,191.82
2018-03-22T21:02:23.770Z,320.23
2018-03-22T21:04:53.048Z,241.20
2018-03-22T21:07:21.166Z,300.20
2018-03-22T21:09:47.800Z,236.73
2018-03-22T21:12:14.308Z,316.65
2018-03-22T21:14:40.829Z,247.85
2018-03-22T21:17:07.394Z,379.40
2018-03-22T21:19:33.946Z,330.10
2018-03-22T21:22:00.753Z,292.62
2018-03-22T21:24:27.401Z,296.55
2018-03-22T21:26:54.753Z,295.85
2018-03-22T21:29:21.286Z,365.37
2018-03-22T21:31:47.818Z,306.48
2018-03-22T21:34:14.527Z,278.98
2018-03-22T21:36:40.983Z,427.80
2018-03-22T21:39:07.466Z,304.38
2018-03-22T21:41:33.954Z,343.63
2018-03-22T21:44:12.666Z,404.90
2018-03-22T21:46:39.807Z,376.62
2018-03-22T21:49:06.317Z,344.58
2018-03-22T21:51:32.720Z,374.15
2018-03-22T21:53:59.330Z,411.23
2018-03-22T21:56:25.887Z,344.17
2018-03-22T21:58:56.256Z,400.08
2018-03-22T22:01:22.739Z,369.37
2018-03-22T22:03:49.966Z,393.45
2018-03-22T22:06:16.376Z,413.83
2018-03-22T22:08:42.794Z,361.83
2018-03-22T22:11:09.269Z,395.90
2018-03-22T22:13:36.449Z,375.85
2018-03-22T22:16:03.664Z,363.17
2018-03-22T22:18:30.089Z,397.80
2018-03-22T22:20:57.196Z,426.75
2018-03-22T22:23:24.366Z,413.30
2018-03-22T22:25:51.750Z,407.77
2018-03-22T22:28:19.947Z,369.40
2018-03-22T22:30:46.475Z,383.30
2018-03-22T22:33:13.910Z,424.23
2018-03-22T22:35:40.335Z,411.83
2018-03-22T22:38:06.776Z,432.27
2018-03-22T22:40:33.247Z,422.77
2018-03-22T22:43:00.215Z,380.17
2018-03-22T22:45:26.660Z,503.05
2018-03-22T22:47:53.111Z,370.15
2018-03-22T22:50:22.475Z,410.02
2018-03-22T22:52:48.961Z,432.35
2018-03-22T22:55:15.437Z,362.33
2018-03-22T22:57:41.906Z,387.23
2018-03-22T23:00:09.842Z,363.98
2018-03-22T23:02:36.339Z,368.67
2018-03-22T23:05:02.782Z,343.75
2018-03-22T23:07:29.221Z,389.75
2018-03-22T23:09:55.641Z,398.92
2018-03-22T23:12:22.095Z,328.20
2018-03-22T23:14:48.520Z,381.73
2018-03-22T23:17:15.739Z,476.87
2018-03-22T23:19:42.293Z,335.10
2018-03-22T23:22:08.698Z,385.48
2018-03-22T23:24:35.821Z,432.10
2018-03-22T23:27:02.958Z,345.60
2018-03-22T23:29:29.321Z,331.23
2018-03-22T23:31:55.691Z,366.25
2018-03-22T23:34:22.166Z,408.10
2018-03-22T23:36:49.506Z,374.92
2018-03-22T23:39:15.986Z,456.15
2018-03-22T23:41:42.408Z,364.10
2018-03-22T23:44:08.784Z,319.58
2018-03-22T23:46:35.109Z,369.08
2018-03-22T23:49:01.510Z,357.50
2018-03-22T23:51:28.744Z,347.25
2018-03-22T23:53:55.131Z,385.98
2018-03-22T23:56:21.595Z,333.60
2018-03-22T23:58:48.065Z,362.58
